sensor_id;sensor_type;location;lat;lon;timestamp;P1;durP1;ratioP1;P2;durP2;ratioP2
9563;SDS011;4820;50.870;4.702;2024-03-23T00:53:53;8.55;;;3.50;;
9563;SDS011;4820;50.870;4.702;2024-03-23T00:56:19;9.00;;;3.30;;
9563;SDS011;4820;50.870;4.702;2024-03-23T00:58:44;8.68;;;2.90;;
9563;SDS011;4820;50.870;4.702;2024-03-23T01:01:11;9.27;;;3.17;;
9563;SDS011;4820;50.870;4.702;2024-03-23T01:03:36;6.45;;;2.97;;
9563;SDS011;4820;50.870;4.702;2024-03-23T01:06:02;10.45;;;3.22;;
9563;SDS011;4820;50.870;4.702;2024-03-23T01:08:32;8.02;;;3.53;;
9563;SDS011;4820;50.870;4.702;2024-03-23T01:10:59;12.23;;;3.40;;
9563;SDS011;4820;50.870;4.702;2024-03-23T01:13:26;8.43;;;3.08;;
9563;SDS011;4820;50.870;4.702;2024-03-23T01:15:54;9.57;;;2.92;;
9563;SDS011;4820;50.870;4.702;2024-03-23T01:18:21;9.13;;;3.50;;
9563;SDS011;4820;50.870;4.702;2024-03-23T01:20:47;8.18;;;3.15;;
9563;SDS011;4820;50.870;4.702;2024-03-23T01:23:13;9.77;;;4.10;;
9563;SDS011;4820;50.870;4.702;2024-03-23T01:25:39;8.25;;;3.70;;
9563;SDS011;4820;50.870;4.702;2024-03-23T01:28:05;9.60;;;3.75;;
9563;SDS011;4820;50.870;4.702;2024-03-23T01:30:31;10.52;;;3.80;;
9563;SDS011;4820;50.870;4.702;2024-03-23T01:32:58;9.63;;;4.00;;
9563;SDS011;4820;50.870;4.702;2024-03-23T01:35:23;11.20;;;4.72;;
9563;SDS011;4820;50.870;4.702;2024-03-23T01:37:49;8.30;;;3.80;;
9563;SDS011;4820;50.870;4.702;2024-03-23T01:40:18;7.13;;;3.97;;
9563;SDS011;4820;50.870;4.702;2024-03-23T01:42:57;12.98;;;4.45;;
9563;SDS011;4820;50.870;4.702;2024-03-23T01:45:23;10.10;;;4.43;;
9563;SDS011;4820;50.870;4.702;2024-03-23T01:47:52;10.73;;;4.38;;
9563;SDS011;4820;50.870;4.702;2024-03-23T01:50:19;12.02;;;5.10;;
9563;SDS011;4820;50.870;4.702;2024-03-23T01:52:45;10.35;;;4.70;;
9563;SDS011;4820;50.870;4.702;2024-03-23T01:55:13;10.23;;;4.47;;
9563;SDS011;4820;50.870;4.702;2024-03-23T01:57:39;11.63;;;4.68;;
9563;SDS011;4820;50.870;4.702;2024-03-23T02:00:05;11.70;;;4.72;;
9563;SDS011;4820;50.870;4.702;2024-03-23T02:02:32;7.80;;;4.55;;
9563;SDS011;4820;50.870;4.702;2024-03-23T02:04:57;10.45;;;4.78;;
9563;SDS011;4820;50.870;4.702;2024-03-23T02:07:24;9.93;;;4.65;;
9563;SDS011;4820;50.870;4.702;2024-03-23T02:09:53;9.45;;;4.38;;
9563;SDS011;4820;50.870;4.702;2024-03-23T02:12:19;9.20;;;4.20;;
9563;SDS011;4820;50.870;4.702;2024-03-23T02:14:46;8.90;;;3.97;;
9563;SDS011;4820;50.870;4.702;2024-03-23T02:17:12;7.57;;;4.30;;
9563;SDS011;4820;50.870;4.702;2024-03-23T02:19:38;8.65;;;4.32;;
9563;SDS011;4820;50.870;4.702;2024-03-23T02:22:04;10.70;;;4.18;;
9563;SDS011;4820;50.870;4.702;2024-03-23T02:24:32;9.63;;;3.92;;
9563;SDS011;4820;50.870;4.702;2024-03-23T02:26:59;10.75;;;4.35;;
9563;SDS011;4820;50.870;4.702;2024-03-23T02:29:25;8.50;;;4.22;;
9563;SDS011;4820;50.870;4.702;2024-03-23T02:31:50;9.95;;;4.47;;
9563;SDS011;4820;50.870;4.702;2024-03-23T02:34:16;8.45;;;4.40;;
9563;SDS011;4820;50.870;4.702;2024-03-23T02:36:42;8.55;;;4.30;;
9563;SDS011;4820;50.870;4.702;2024-03-23T02:39:09;8.15;;;4.47;;
9563;SDS011;4820;50.870;4.702;2024-03-23T02:41:34;8.07;;;4.35;;
9563;SDS011;4820;50.870;4.702;2024-03-23T02:44:01;8.10;;;3.95;;
9563;SDS011;4820;50.870;4.702;2024-03-23T02:46:28;10.48;;;4.68;;
9563;SDS011;4820;50.870;4.702;2024-03-23T02:48:55;10.25;;;4.53;;
9563;SDS011;4820;50.870;4.702;2024-03-23T02:51:22;8.00;;;4.03;;
9563;SDS011;4820;50.870;4.702;2024-03-23T02:53:48;10.48;;;4.53;;
9563;SDS011;4820;50.870;4.702;2024-03-23T02:56:14;8.27;;;4.55;;
9563;SDS011;4820;50.870;4.702;2024-03-23T02:58:42;14.20;;;4.72;;
9563;SDS011;4820;50.870;4.702;2024-03-23T03:01:08;10.25;;;4.88;;
9563;SDS011;4820;50.870;4.702;2024-03-23T03:03:34;9.93;;;5.15;;
9563;SDS011;4820;50.870;4.702;2024-03-23T03:05:59;9.00;;;4.82;;
9563;SDS011;4820;50.870;4.702;2024-03-23T03:08:25;11.93;;;5.35;;
9563;SDS011;4820;50.870;4.702;2024-03-23T03:10:51;9.77;;;5.55;;
9563;SDS011;4820;50.870;4.702;2024-03-23T03:13:17;11.98;;;5.90;;
9563;SDS011;4820;50.870;4.702;2024-03-23T03:15:43;13.30;;;5.82;;
9563;SDS011;4820;50.870;4.702;2024-03-23T03:18:10;11.25;;;6.05;;
9563;SDS011;4820;50.870;4.702;2024-03-23T03:20:39;11.90;;;5.90;;
9563;SDS011;4820;50.870;4.702;2024-03-23T03:23:06;11.55;;;5.65;;
9563;SDS011;4820;50.870;4.702;2024-03-23T03:25:33;12.13;;;5.55;;
9563;SDS011;4820;50.870;4.702;2024-03-23T03:27:59;11.27;;;5.75;;
9563;SDS011;4820;50.870;4.702;2024-03-23T03:30:25;12.38;;;5.50;;
9563;SDS011;4820;50.870;4.702;2024-03-23T03:32:52;10.70;;;5.22;;
9563;SDS011;4820;50.870;4.702;2024-03-23T03:35:19;11.60;;;4.88;;
9563;SDS011;4820;50.870;4.702;2024-03-23T03:37:44;10.70;;;5.15;;
9563;SDS011;4820;50.870;4.702;2024-03-23T03:40:10;9.57;;;4.47;;
9563;SDS011;4820;50.870;4.702;2024-03-23T03:42:37;12.50;;;4.90;;
9563;SDS011;4820;50.870;4.702;2024-03-23T03:45:03;11.50;;;5.07;;
9563;SDS011;4820;50.870;4.702;2024-03-23T03:47:29;12.07;;;5.13;;
9563;SDS011;4820;50.870;4.702;2024-03-23T03:49:55;9.50;;;4.57;;
9563;SDS011;4820;50.870;4.702;2024-03-23T03:52:21;14.00;;;5.15;;
9563;SDS011;4820;50.870;4.702;2024-03-23T03:54:47;12.05;;;5.53;;
9563;SDS011;4820;50.870;4.702;2024-03-23T03:57:12;13.60;;;5.50;;
9563;SDS011;4820;50.870;4.702;2024-03-23T03:59:38;10.82;;;5.55;;
9563;SDS011;4820;50.870;4.702;2024-03-23T04:02:04;11.95;;;5.20;;
9563;SDS011;4820;50.870;4.702;2024-03-23T04:04:30;13.70;;;5.30;;
9563;SDS011;4820;50.870;4.702;2024-03-23T04:06:59;12.98;;;5.10;;
9563;SDS011;4820;50.870;4.702;2024-03-23T04:09:25;9.52;;;5.07;;
9563;SDS011;4820;50.870;4.702;2024-03-23T04:11:51;12.73;;;5.55;;
9563;SDS011;4820;50.870;4.702;2024-03-23T04:14:17;11.30;;;5.03;;
9563;SDS011;4820;50.870;4.702;2024-03-23T04:16:42;12.98;;;5.50;;
9563;SDS011;4820;50.870;4.702;2024-03-23T04:19:09;12.43;;;5.90;;
9563;SDS011;4820;50.870;4.702;2024-03-23T04:21:37;11.80;;;5.90;;
9563;SDS011;4820;50.870;4.702;2024-03-23T04:24:03;15.10;;;6.40;;
9563;SDS011;4820;50.870;4.702;2024-03-23T04:26:30;13.13;;;6.10;;
9563;SDS011;4820;50.870;4.702;2024-03-23T04:29:05;11.95;;;6.10;;
9563;SDS011;4820;50.870;4.702;2024-03-23T04:31:31;16.02;;;6.53;;
9563;SDS011;4820;50.870;4.702;2024-03-23T04:33:59;16.17;;;6.68;;
9563;SDS011;4820;50.870;4.702;2024-03-23T04:36:28;16.58;;;7.05;;
9563;SDS011;4820;50.870;4.702;2024-03-23T04:38:53;13.18;;;6.88;;
9563;SDS011;4820;50.870;4.702;2024-03-23T04:41:19;11.98;;;6.43;;
9563;SDS011;4820;50.870;4.702;2024-03-23T04:43:45;12.70;;;6.72;;
9563;SDS011;4820;50.870;4.702;2024-03-23T04:46:11;12.60;;;6.93;;
9563;SDS011;4820;50.870;4.702;2024-03-23T04:48:37;13.93;;;7.53;;
9563;SDS011;4820;50.870;4.702;2024-03-23T04:51:03;15.77;;;7.45;;
9563;SDS011;4820;50.870;4.702;2024-03-23T04:53:29;16.35;;;7.53;;
9563;SDS011;4820;50.870;4.702;2024-03-23T04:55:58;16.80;;;7.60;;
9563;SDS011;4820;50.870;4.702;2024-03-23T04:58:27;14.30;;;7.35;;
9563;SDS011;4820;50.870;4.702;2024-03-23T05:00:53;17.98;;;7.75;;
9563;SDS011;4820;50.870;4.702;2024-03-23T05:03:22;17.63;;;7.78;;
9563;SDS011;4820;50.870;4.702;2024-03-23T05:05:49;13.52;;;6.93;;
9563;SDS011;4820;50.870;4.702;2024-03-23T05:08:15;15.63;;;6.97;;
9563;SDS011;4820;50.870;4.702;2024-03-23T05:10:42;14.23;;;6.88;;
9563;SDS011;4820;50.870;4.702;2024-03-23T05:13:08;10.07;;;6.15;;
9563;SDS011;4820;50.870;4.702;2024-03-23T05:15:34;10.23;;;5.97;;
9563;SDS011;4820;50.870;4.702;2024-03-23T05:18:00;11.60;;;5.85;;
9563;SDS011;4820;50.870;4.702;2024-03-23T05:20:26;14.60;;;6.07;;
9563;SDS011;4820;50.870;4.702;2024-03-23T05:22:54;10.38;;;5.40;;
9563;SDS011;4820;50.870;4.702;2024-03-23T05:25:20;10.50;;;5.63;;
9563;SDS011;4820;50.870;4.702;2024-03-23T05:27:46;9.88;;;5.15;;
9563;SDS011;4820;50.870;4.702;2024-03-23T05:30:12;11.25;;;5.10;;
9563;SDS011;4820;50.870;4.702;2024-03-23T05:32:38;12.00;;;5.07;;
9563;SDS011;4820;50.870;4.702;2024-03-23T05:35:06;11.25;;;4.97;;
9563;SDS011;4820;50.870;4.702;2024-03-23T05:37:32;11.55;;;4.68;;
9563;SDS011;4820;50.870;4.702;2024-03-23T05:39:59;10.13;;;5.10;;
9563;SDS011;4820;50.870;4.702;2024-03-23T05:42:26;8.68;;;4.82;;
9563;SDS011;4820;50.870;4.702;2024-03-23T05:44:52;12.20;;;5.80;;
9563;SDS011;4820;50.870;4.702;2024-03-23T05:47:17;11.20;;;5.03;;
9563;SDS011;4820;50.870;4.702;2024-03-23T05:49:43;13.93;;;5.28;;
9563;SDS011;4820;50.870;4.702;2024-03-23T05:52:11;10.38;;;5.38;;
9563;SDS011;4820;50.870;4.702;2024-03-23T05:54:37;13.07;;;5.68;;
9563;SDS011;4820;50.870;4.702;2024-03-23T05:57:03;15.65;;;5.18;;
9563;SDS011;4820;50.870;4.702;2024-03-23T05:59:30;9.27;;;5.18;;
9563;SDS011;4820;50.870;4.702;2024-03-23T06:01:56;12.25;;;5.35;;
9563;SDS011;4820;50.870;4.702;2024-03-23T06:04:22;9.85;;;5.85;;
9563;SDS011;4820;50.870;4.702;2024-03-23T06:06:50;15.98;;;5.88;;
9563;SDS011;4820;50.870;4.702;2024-03-23T06:09:20;10.23;;;5.88;;
9563;SDS011;4820;50.870;4.702;2024-03-23T06:11:48;14.20;;;5.85;;
9563;SDS011;4820;50.870;4.702;2024-03-23T06:14:14;9.70;;;5.80;;
9563;SDS011;4820;50.870;4.702;2024-03-23T06:16:40;12.85;;;5.90;;
9563;SDS011;4820;50.870;4.702;2024-03-23T06:19:05;10.77;;;5.03;;
9563;SDS011;4820;50.870;4.702;2024-03-23T06:21:32;10.02;;;5.07;;
9563;SDS011;4820;50.870;4.702;2024-03-23T06:23:59;12.65;;;5.60;;
9563;SDS011;4820;50.870;4.702;2024-03-23T06:26:24;11.55;;;5.68;;
9563;SDS011;4820;50.870;4.702;2024-03-23T06:28:50;10.32;;;5.05;;
9563;SDS011;4820;50.870;4.702;2024-03-23T06:31:16;11.90;;;4.60;;
9563;SDS011;4820;50.870;4.702;2024-03-23T06:33:42;11.43;;;4.70;;
9563;SDS011;4820;50.870;4.702;2024-03-23T06:36:10;10.90;;;5.25;;
9563;SDS011;4820;50.870;4.702;2024-03-23T06:38:37;10.02;;;4.30;;
9563;SDS011;4820;50.870;4.702;2024-03-23T06:41:03;10.68;;;4.75;;
9563;SDS011;4820;50.870;4.702;2024-03-23T06:43:30;9.93;;;5.28;;
9563;SDS011;4820;50.870;4.702;2024-03-23T06:45:55;11.32;;;4.70;;
9563;SDS011;4820;50.870;4.702;2024-03-23T06:48:22;11.88;;;4.30;;
9563;SDS011;4820;50.870;4.702;2024-03-23T06:50:47;9.98;;;3.80;;
9563;SDS011;4820;50.870;4.702;2024-03-23T06:53:14;9.10;;;4.35;;
9563;SDS011;4820;50.870;4.702;2024-03-23T06:55:40;12.07;;;4.32;;
9563;SDS011;4820;50.870;4.702;2024-03-23T06:58:06;10.00;;;4.25;;
9563;SDS011;4820;50.870;4.702;2024-03-23T07:00:32;10.75;;;3.80;;
9563;SDS011;4820;50.870;4.702;2024-03-23T07:02:59;10.48;;;4.00;;
9563;SDS011;4820;50.870;4.702;2024-03-23T07:05:25;9.77;;;3.40;;
9563;SDS011;4820;50.870;4.702;2024-03-23T07:07:50;9.38;;;3.53;;
9563;SDS011;4820;50.870;4.702;2024-03-23T07:10:16;11.70;;;3.35;;
9563;SDS011;4820;50.870;4.702;2024-03-23T07:12:42;12.27;;;3.30;;
9563;SDS011;4820;50.870;4.702;2024-03-23T07:15:08;8.88;;;3.40;;
9563;SDS011;4820;50.870;4.702;2024-03-23T07:17:35;11.25;;;3.42;;
9563;SDS011;4820;50.870;4.702;2024-03-23T07:20:01;8.25;;;2.90;;
9563;SDS011;4820;50.870;4.702;2024-03-23T07:22:29;10.30;;;3.40;;
9563;SDS011;4820;50.870;4.702;2024-03-23T07:24:56;11.30;;;3.95;;
9563;SDS011;4820;50.870;4.702;2024-03-23T07:27:24;11.77;;;3.25;;
9563;SDS011;4820;50.870;4.702;2024-03-23T07:29:51;9.80;;;2.78;;
9563;SDS011;4820;50.870;4.702;2024-03-23T07:32:17;8.38;;;2.97;;
9563;SDS011;4820;50.870;4.702;2024-03-23T07:34:43;7.47;;;2.92;;
9563;SDS011;4820;50.870;4.702;2024-03-23T07:37:09;8.10;;;3.03;;
9563;SDS011;4820;50.870;4.702;2024-03-23T07:39:35;7.93;;;2.80;;
9563;SDS011;4820;50.870;4.702;2024-03-23T07:42:01;8.55;;;2.88;;
9563;SDS011;4820;50.870;4.702;2024-03-23T07:44:27;5.60;;;2.55;;
9563;SDS011;4820;50.870;4.702;2024-03-23T07:46:54;6.57;;;2.42;;
9563;SDS011;4820;50.870;4.702;2024-03-23T07:49:19;7.22;;;2.78;;
9563;SDS011;4820;50.870;4.702;2024-03-23T07:51:46;6.65;;;2.30;;
9563;SDS011;4820;50.870;4.702;2024-03-23T07:56:40;5.85;;;2.15;;
9563;SDS011;4820;50.870;4.702;2024-03-23T07:59:07;4.60;;;1.67;;
9563;SDS011;4820;50.870;4.702;2024-03-23T08:01:33;4.65;;;1.80;;
9563;SDS011;4820;50.870;4.702;2024-03-23T08:04:00;5.47;;;2.25;;
9563;SDS011;4820;50.870;4.702;2024-03-23T08:06:26;5.35;;;2.13;;
9563;SDS011;4820;50.870;4.702;2024-03-23T08:08:55;5.97;;;2.47;;
9563;SDS011;4820;50.870;4.702;2024-03-23T08:11:30;8.70;;;2.95;;
9563;SDS011;4820;50.870;4.702;2024-03-23T08:13:59;7.30;;;2.78;;
9563;SDS011;4820;50.870;4.702;2024-03-23T08:16:24;6.47;;;2.88;;
9563;SDS011;4820;50.870;4.702;2024-03-23T08:18:53;8.00;;;2.85;;
9563;SDS011;4820;50.870;4.702;2024-03-23T08:21:21;8.50;;;3.03;;
9563;SDS011;4820;50.870;4.702;2024-03-23T08:23:47;7.60;;;3.17;;
9563;SDS011;4820;50.870;4.702;2024-03-23T08:26:15;8.65;;;3.03;;
9563;SDS011;4820;50.870;4.702;2024-03-23T08:28:42;9.82;;;2.92;;
9563;SDS011;4820;50.870;4.702;2024-03-23T08:31:10;7.53;;;3.28;;
9563;SDS011;4820;50.870;4.702;2024-03-23T08:33:36;9.30;;;3.20;;
9563;SDS011;4820;50.870;4.702;2024-03-23T08:36:04;10.43;;;2.85;;
9563;SDS011;4820;50.870;4.702;2024-03-23T08:38:32;8.57;;;2.80;;
9563;SDS011;4820;50.870;4.702;2024-03-23T08:41:05;8.32;;;3.20;;
9563;SDS011;4820;50.870;4.702;2024-03-23T08:43:38;10.23;;;3.60;;
9563;SDS011;4820;50.870;4.702;2024-03-23T08:46:12;10.10;;;2.83;;
9563;SDS011;4820;50.870;4.702;2024-03-23T08:48:39;8.63;;;2.90;;
9563;SDS011;4820;50.870;4.702;2024-03-23T08:51:08;7.53;;;2.90;;
9563;SDS011;4820;50.870;4.702;2024-03-23T08:53:35;7.50;;;2.85;;
9563;SDS011;4820;50.870;4.702;2024-03-23T08:56:01;6.45;;;2.58;;
9563;SDS011;4820;50.870;4.702;2024-03-23T08:58:28;8.70;;;3.00;;
9563;SDS011;4820;50.870;4.702;2024-03-23T09:00:55;10.90;;;3.05;;
9563;SDS011;4820;50.870;4.702;2024-03-23T09:03:25;7.05;;;2.88;;
9563;SDS011;4820;50.870;4.702;2024-03-23T09:05:52;9.82;;;2.83;;
9563;SDS011;4820;50.870;4.702;2024-03-23T09:08:19;7.45;;;2.70;;
9563;SDS011;4820;50.870;4.702;2024-03-23T09:10:45;7.80;;;2.72;;
9563;SDS011;4820;50.870;4.702;2024-03-23T09:13:12;6.15;;;2.95;;
9563;SDS011;4820;50.870;4.702;2024-03-23T09:15:45;10.77;;;3.00;;
9563;SDS011;4820;50.870;4.702;2024-03-23T09:18:15;9.55;;;3.00;;
9563;SDS011;4820;50.870;4.702;2024-03-23T09:20:41;7.43;;;2.80;;
9563;SDS011;4820;50.870;4.702;2024-03-23T09:23:06;7.05;;;2.60;;
9563;SDS011;4820;50.870;4.702;2024-03-23T09:25:36;8.93;;;2.70;;
9563;SDS011;4820;50.870;4.702;2024-03-23T09:28:05;7.43;;;2.50;;
9563;SDS011;4820;50.870;4.702;2024-03-23T09:30:33;7.53;;;2.50;;
9563;SDS011;4820;50.870;4.702;2024-03-23T09:33:00;8.23;;;2.90;;
9563;SDS011;4820;50.870;4.702;2024-03-23T09:35:26;10.57;;;2.40;;
9563;SDS011;4820;50.870;4.702;2024-03-23T09:37:52;7.88;;;2.10;;
9563;SDS011;4820;50.870;4.702;2024-03-23T09:40:17;7.82;;;2.20;;
9563;SDS011;4820;50.870;4.702;2024-03-23T09:42:49;4.75;;;2.20;;
9563;SDS011;4820;50.870;4.702;2024-03-23T09:45:17;7.90;;;2.22;;
9563;SDS011;4820;50.870;4.702;2024-03-23T09:47:46;7.07;;;2.28;;
9563;SDS011;4820;50.870;4.702;2024-03-23T09:50:12;5.85;;;2.30;;
9563;SDS011;4820;50.870;4.702;2024-03-23T09:52:39;6.43;;;2.38;;
9563;SDS011;4820;50.870;4.702;2024-03-23T09:55:06;6.90;;;2.30;;
9563;SDS011;4820;50.870;4.702;2024-03-23T09:57:38;9.85;;;2.60;;
9563;SDS011;4820;50.870;4.702;2024-03-23T10:00:04;6.20;;;2.63;;
9563;SDS011;4820;50.870;4.702;2024-03-23T10:02:32;5.82;;;2.42;;
9563;SDS011;4820;50.870;4.702;2024-03-23T10:04:59;5.78;;;2.00;;
9563;SDS011;4820;50.870;4.702;2024-03-23T10:07:25;5.93;;;2.53;;
9563;SDS011;4820;50.870;4.702;2024-03-23T10:09:53;7.32;;;2.30;;
9563;SDS011;4820;50.870;4.702;2024-03-23T10:12:19;8.35;;;2.60;;
9563;SDS011;4820;50.870;4.702;2024-03-23T10:14:45;4.97;;;2.25;;
9563;SDS011;4820;50.870;4.702;2024-03-23T10:17:12;5.28;;;2.22;;
9563;SDS011;4820;50.870;4.702;2024-03-23T10:19:45;6.07;;;2.30;;
9563;SDS011;4820;50.870;4.702;2024-03-23T10:22:19;7.72;;;2.38;;
9563;SDS011;4820;50.870;4.702;2024-03-23T10:24:51;6.18;;;2.00;;
9563;SDS011;4820;50.870;4.702;2024-03-23T10:27:19;6.15;;;1.88;;
9563;SDS011;4820;50.870;4.702;2024-03-23T10:29:45;5.50;;;2.08;;
9563;SDS011;4820;50.870;4.702;2024-03-23T10:32:15;3.92;;;1.95;;
9563;SDS011;4820;50.870;4.702;2024-03-23T10:34:42;4.40;;;2.00;;
9563;SDS011;4820;50.870;4.702;2024-03-23T10:37:09;6.32;;;2.20;;
9563;SDS011;4820;50.870;4.702;2024-03-23T10:39:36;5.07;;;2.20;;
9563;SDS011;4820;50.870;4.702;2024-03-23T10:42:03;4.88;;;2.00;;
9563;SDS011;4820;50.870;4.702;2024-03-23T10:44:32;6.03;;;1.95;;
9563;SDS011;4820;50.870;4.702;2024-03-23T10:46:58;6.70;;;2.20;;
9563;SDS011;4820;50.870;4.702;2024-03-23T10:51:57;7.60;;;2.10;;
9563;SDS011;4820;50.870;4.702;2024-03-23T10:54:25;8.13;;;2.17;;
9563;SDS011;4820;50.870;4.702;2024-03-23T10:57:13;6.40;;;1.90;;
9563;SDS011;4820;50.870;4.702;2024-03-23T10:59:40;5.03;;;1.90;;
9563;SDS011;4820;50.870;4.702;2024-03-23T11:02:06;5.20;;;2.17;;
9563;SDS011;4820;50.870;4.702;2024-03-23T11:04:38;5.28;;;1.80;;
9563;SDS011;4820;50.870;4.702;2024-03-23T11:09:48;5.82;;;1.95;;
9563;SDS011;4820;50.870;4.702;2024-03-23T11:14:50;5.50;;;2.00;;
9563;SDS011;4820;50.870;4.702;2024-03-23T11:17:20;3.40;;;1.63;;
9563;SDS011;4820;50.870;4.702;2024-03-23T11:19:54;5.22;;;1.90;;
9563;SDS011;4820;50.870;4.702;2024-03-23T11:27:49;4.03;;;1.50;;
9563;SDS011;4820;50.870;4.702;2024-03-23T11:30:17;6.07;;;1.75;;
9563;SDS011;4820;50.870;4.702;2024-03-23T11:32:47;4.22;;;1.60;;
9563;SDS011;4820;50.870;4.702;2024-03-23T11:35:26;4.85;;;1.65;;
9563;SDS011;4820;50.870;4.702;2024-03-23T11:38:08;4.18;;;1.65;;
9563;SDS011;4820;50.870;4.702;2024-03-23T11:40:46;5.93;;;1.80;;
9563;SDS011;4820;50.870;4.702;2024-03-23T11:43:19;4.85;;;1.60;;
9563;SDS011;4820;50.870;4.702;2024-03-23T11:45:48;2.65;;;1.27;;
9563;SDS011;4820;50.870;4.702;2024-03-23T11:48:18;4.20;;;1.67;;
9563;SDS011;4820;50.870;4.702;2024-03-23T11:50:49;3.05;;;1.48;;
9563;SDS011;4820;50.870;4.702;2024-03-23T11:53:23;4.85;;;2.10;;
9563;SDS011;4820;50.870;4.702;2024-03-23T11:58:25;4.30;;;1.70;;
9563;SDS011;4820;50.870;4.702;2024-03-23T12:03:18;3.97;;;1.80;;
9563;SDS011;4820;50.870;4.702;2024-03-23T12:05:53;4.38;;;1.42;;
9563;SDS011;4820;50.870;4.702;2024-03-23T12:08:22;3.67;;;1.50;;
9563;SDS011;4820;50.870;4.702;2024-03-23T12:10:53;3.67;;;1.42;;
9563;SDS011;4820;50.870;4.702;2024-03-23T12:13:36;4.28;;;1.60;;
9563;SDS011;4820;50.870;4.702;2024-03-23T12:16:14;3.90;;;1.30;;
9563;SDS011;4820;50.870;4.702;2024-03-23T12:18:42;3.30;;;1.38;;
9563;SDS011;4820;50.870;4.702;2024-03-23T12:21:09;5.40;;;1.60;;
9563;SDS011;4820;50.870;4.702;2024-03-23T12:23:35;3.15;;;1.50;;
9563;SDS011;4820;50.870;4.702;2024-03-23T12:26:01;4.63;;;1.25;;
9563;SDS011;4820;50.870;4.702;2024-03-23T12:28:27;3.92;;;1.42;;
9563;SDS011;4820;50.870;4.702;2024-03-23T12:30:53;5.35;;;1.40;;
9563;SDS011;4820;50.870;4.702;2024-03-23T12:33:19;2.85;;;1.35;;
9563;SDS011;4820;50.870;4.702;2024-03-23T12:35:46;5.32;;;1.88;;
9563;SDS011;4820;50.870;4.702;2024-03-23T12:38:15;6.50;;;1.83;;
9563;SDS011;4820;50.870;4.702;2024-03-23T12:40:42;3.08;;;1.65;;
9563;SDS011;4820;50.870;4.702;2024-03-23T12:43:11;5.93;;;1.77;;
9563;SDS011;4820;50.870;4.702;2024-03-23T12:45:37;5.32;;;1.70;;
9563;SDS011;4820;50.870;4.702;2024-03-23T12:48:02;3.53;;;1.50;;
9563;SDS011;4820;50.870;4.702;2024-03-23T12:50:28;3.13;;;1.20;;
9563;SDS011;4820;50.870;4.702;2024-03-23T12:52:54;3.53;;;1.60;;
9563;SDS011;4820;50.870;4.702;2024-03-23T12:55:20;4.78;;;1.60;;
9563;SDS011;4820;50.870;4.702;2024-03-23T12:57:46;3.47;;;1.30;;
9563;SDS011;4820;50.870;4.702;2024-03-23T13:00:13;4.00;;;1.13;;
9563;SDS011;4820;50.870;4.702;2024-03-23T13:02:42;4.03;;;1.20;;
9563;SDS011;4820;50.870;4.702;2024-03-23T13:05:11;5.43;;;1.80;;
9563;SDS011;4820;50.870;4.702;2024-03-23T13:07:37;5.32;;;1.70;;
9563;SDS011;4820;50.870;4.702;2024-03-23T13:10:05;2.83;;;1.42;;
9563;SDS011;4820;50.870;4.702;2024-03-23T13:12:31;6.35;;;1.92;;
9563;SDS011;4820;50.870;4.702;2024-03-23T13:14:58;5.80;;;1.90;;
9563;SDS011;4820;50.870;4.702;2024-03-23T13:17:24;5.18;;;1.98;;
9563;SDS011;4820;50.870;4.702;2024-03-23T13:19:53;5.63;;;2.28;;
9563;SDS011;4820;50.870;4.702;2024-03-23T13:22:20;6.53;;;2.00;;
9563;SDS011;4820;50.870;4.702;2024-03-23T13:24:46;5.35;;;1.33;;
9563;SDS011;4820;50.870;4.702;2024-03-23T13:27:12;4.97;;;1.90;;
9563;SDS011;4820;50.870;4.702;2024-03-23T13:29:37;3.90;;;1.63;;
9563;SDS011;4820;50.870;4.702;2024-03-23T13:32:04;4.30;;;1.25;;
9563;SDS011;4820;50.870;4.702;2024-03-23T13:34:30;4.93;;;1.27;;
9563;SDS011;4820;50.870;4.702;2024-03-23T13:36:57;4.18;;;1.38;;
9563;SDS011;4820;50.870;4.702;2024-03-23T13:39:25;4.80;;;1.50;;
9563;SDS011;4820;50.870;4.702;2024-03-23T13:41:54;3.05;;;1.50;;
9563;SDS011;4820;50.870;4.702;2024-03-23T13:44:21;3.65;;;1.48;;
9563;SDS011;4820;50.870;4.702;2024-03-23T13:46:47;3.40;;;1.48;;
9563;SDS011;4820;50.870;4.702;2024-03-23T13:51:56;3.33;;;1.23;;
9563;SDS011;4820;50.870;4.702;2024-03-23T13:54:25;3.53;;;1.33;;
9563;SDS011;4820;50.870;4.702;2024-03-23T13:56:51;2.30;;;1.20;;
9563;SDS011;4820;50.870;4.702;2024-03-23T13:59:19;2.75;;;1.30;;
9563;SDS011;4820;50.870;4.702;2024-03-23T14:01:46;2.33;;;1.20;;
9563;SDS011;4820;50.870;4.702;2024-03-23T14:04:12;2.75;;;1.48;;
9563;SDS011;4820;50.870;4.702;2024-03-23T14:06:38;3.85;;;1.48;;
9563;SDS011;4820;50.870;4.702;2024-03-23T14:09:04;3.75;;;1.35;;
9563;SDS011;4820;50.870;4.702;2024-03-23T14:11:33;3.38;;;1.20;;
9563;SDS011;4820;50.870;4.702;2024-03-23T14:14:01;2.40;;;1.10;;
9563;SDS011;4820;50.870;4.702;2024-03-23T14:16:28;3.63;;;1.40;;
9563;SDS011;4820;50.870;4.702;2024-03-23T14:18:54;3.47;;;1.15;;
9563;SDS011;4820;50.870;4.702;2024-03-23T14:21:20;4.22;;;1.30;;
9563;SDS011;4820;50.870;4.702;2024-03-23T14:23:46;2.80;;;1.40;;
9563;SDS011;4820;50.870;4.702;2024-03-23T14:26:12;3.78;;;1.42;;
9563;SDS011;4820;50.870;4.702;2024-03-23T14:28:38;4.55;;;1.38;;
9563;SDS011;4820;50.870;4.702;2024-03-23T14:31:04;4.25;;;1.23;;
9563;SDS011;4820;50.870;4.702;2024-03-23T14:33:35;3.35;;;1.38;;
9563;SDS011;4820;50.870;4.702;2024-03-23T14:36:13;2.72;;;1.40;;
9563;SDS011;4820;50.870;4.702;2024-03-23T14:38:39;4.80;;;1.63;;
9563;SDS011;4820;50.870;4.702;2024-03-23T14:41:06;5.45;;;1.70;;
9563;SDS011;4820;50.870;4.702;2024-03-23T14:43:32;3.70;;;1.25;;
9563;SDS011;4820;50.870;4.702;2024-03-23T14:48:33;4.00;;;1.33;;
9563;SDS011;4820;50.870;4.702;2024-03-23T14:51:00;4.97;;;1.67;;
9563;SDS011;4820;50.870;4.702;2024-03-23T14:53:26;4.28;;;1.65;;
9563;SDS011;4820;50.870;4.702;2024-03-23T14:55:55;3.65;;;1.50;;
9563;SDS011;4820;50.870;4.702;2024-03-23T14:58:21;3.55;;;1.63;;
9563;SDS011;4820;50.870;4.702;2024-03-23T15:00:48;3.15;;;1.23;;
9563;SDS011;4820;50.870;4.702;2024-03-23T15:03:14;3.22;;;1.70;;
9563;SDS011;4820;50.870;4.702;2024-03-23T15:05:39;4.32;;;1.55;;
9563;SDS011;4820;50.870;4.702;2024-03-23T15:08:06;4.03;;;1.60;;
9563;SDS011;4820;50.870;4.702;2024-03-23T15:10:32;4.18;;;1.90;;
9563;SDS011;4820;50.870;4.702;2024-03-23T15:12:58;3.55;;;1.50;;
9563;SDS011;4820;50.870;4.702;2024-03-23T15:15:24;4.18;;;1.98;;
9563;SDS011;4820;50.870;4.702;2024-03-23T15:17:49;2.78;;;1.60;;
9563;SDS011;4820;50.870;4.702;2024-03-23T15:20:16;3.97;;;1.65;;
9563;SDS011;4820;50.870;4.702;2024-03-23T15:22:41;4.05;;;1.83;;
9563;SDS011;4820;50.870;4.702;2024-03-23T15:25:08;5.00;;;1.70;;
9563;SDS011;4820;50.870;4.702;2024-03-23T15:27:34;4.70;;;1.77;;
9563;SDS011;4820;50.870;4.702;2024-03-23T15:30:00;3.70;;;1.40;;
9563;SDS011;4820;50.870;4.702;2024-03-23T15:32:26;2.97;;;1.35;;
9563;SDS011;4820;50.870;4.702;2024-03-23T15:34:51;2.60;;;1.30;;
9563;SDS011;4820;50.870;4.702;2024-03-23T15:37:17;4.15;;;1.33;;
9563;SDS011;4820;50.870;4.702;2024-03-23T15:39:43;3.35;;;1.52;;
9563;SDS011;4820;50.870;4.702;2024-03-23T15:42:08;3.97;;;1.67;;
9563;SDS011;4820;50.870;4.702;2024-03-23T15:44:35;2.90;;;1.25;;
9563;SDS011;4820;50.870;4.702;2024-03-23T15:47:01;3.83;;;1.50;;
9563;SDS011;4820;50.870;4.702;2024-03-23T15:49:26;3.95;;;1.67;;
9563;SDS011;4820;50.870;4.702;2024-03-23T15:51:52;4.50;;;1.60;;
9563;SDS011;4820;50.870;4.702;2024-03-23T15:54:18;3.03;;;1.50;;
9563;SDS011;4820;50.870;4.702;2024-03-23T15:56:44;4.78;;;1.75;;
9563;SDS011;4820;50.870;4.702;2024-03-23T15:59:09;5.05;;;1.65;;
9563;SDS011;4820;50.870;4.702;2024-03-23T16:01:36;3.45;;;1.40;;
9563;SDS011;4820;50.870;4.702;2024-03-23T16:04:03;4.00;;;1.70;;
9563;SDS011;4820;50.870;4.702;2024-03-23T16:06:29;5.20;;;1.65;;
9563;SDS011;4820;50.870;4.702;2024-03-23T16:08:55;2.90;;;1.40;;
9563;SDS011;4820;50.870;4.702;2024-03-23T16:11:21;3.17;;;1.20;;
9563;SDS011;4820;50.870;4.702;2024-03-23T16:13:47;5.32;;;1.70;;
9563;SDS011;4820;50.870;4.702;2024-03-23T16:16:12;4.38;;;1.63;;
9563;SDS011;4820;50.870;4.702;2024-03-23T16:18:39;5.93;;;1.95;;
9563;SDS011;4820;50.870;4.702;2024-03-23T16:21:05;5.28;;;1.92;;
9563;SDS011;4820;50.870;4.702;2024-03-23T16:23:33;5.13;;;1.77;;
9563;SDS011;4820;50.870;4.702;2024-03-23T16:26:02;5.30;;;1.92;;
9563;SDS011;4820;50.870;4.702;2024-03-23T16:28:32;5.93;;;1.80;;